Terminal Aerodrome Forecast
Issued by NWS

Home | Current Version | Previous Version | Text Only | Print | Product List | Glossary On
Versions: 1 2 3 4 5 6 7 8 9 10 11 12 13 14 15 16
000
FTUS45 KLKN 060530
TAFTPH
TAF
KTPH 060530Z 0606/0706 16011KT P6SM SCT100 BKN200
     FM060900 VRB06KT P6SM VCSH BKN080
     FM061900 17012G22KT P6SM -SHRA VCTS SCT050 BKN070CB
     FM070200 14008KT P6SM VCSH BKN070=

USA.gov is the U.S. government's official web portal to all federal, state and local government web resources and services.